sensor_id;sensor_type;location;lat;lon;timestamp;temperature;humidity
4406;DHT22;2216;53.806;11.598;2023-07-20T00:01:15;14.70;54.10
4406;DHT22;2216;53.806;11.598;2023-07-20T00:03:41;14.70;54.10
4406;DHT22;2216;53.806;11.598;2023-07-20T00:06:07;14.70;54.10
4406;DHT22;2216;53.806;11.598;2023-07-20T00:08:33;14.70;54.10
4406;DHT22;2216;53.806;11.598;2023-07-20T00:10:58;14.70;54.10
4406;DHT22;2216;53.806;11.598;2023-07-20T00:13:24;14.70;54.10
4406;DHT22;2216;53.806;11.598;2023-07-20T00:15:51;14.70;54.10
4406;DHT22;2216;53.806;11.598;2023-07-20T00:18:17;14.60;54.20
4406;DHT22;2216;53.806;11.598;2023-07-20T00:20:43;14.60;54.10
4406;DHT22;2216;53.806;11.598;2023-07-20T00:23:09;14.60;54.10
4406;DHT22;2216;53.806;11.598;2023-07-20T00:25:34;14.60;54.20
4406;DHT22;2216;53.806;11.598;2023-07-20T00:28:01;14.50;54.20
4406;DHT22;2216;53.806;11.598;2023-07-20T00:30:27;14.60;54.20
4406;DHT22;2216;53.806;11.598;2023-07-20T00:32:52;14.50;54.20
4406;DHT22;2216;53.806;11.598;2023-07-20T00:35:18;14.50;54.20
4406;DHT22;2216;53.806;11.598;2023-07-20T00:37:44;14.50;54.30
4406;DHT22;2216;53.806;11.598;2023-07-20T00:40:09;14.50;54.20
4406;DHT22;2216;53.806;11.598;2023-07-20T00:42:35;14.40;54.30
4406;DHT22;2216;53.806;11.598;2023-07-20T00:45:01;14.40;54.30
4406;DHT22;2216;53.806;11.598;2023-07-20T00:47:27;14.40;54.30
4406;DHT22;2216;53.806;11.598;2023-07-20T00:49:54;14.40;54.30
4406;DHT22;2216;53.806;11.598;2023-07-20T00:52:21;14.40;54.30
4406;DHT22;2216;53.806;11.598;2023-07-20T00:54:49;14.30;54.30
4406;DHT22;2216;53.806;11.598;2023-07-20T00:57:15;14.30;54.30
4406;DHT22;2216;53.806;11.598;2023-07-20T00:59:41;14.30;54.30
4406;DHT22;2216;53.806;11.598;2023-07-20T01:02:07;14.30;54.40
4406;DHT22;2216;53.806;11.598;2023-07-20T01:04:34;14.20;54.40
4406;DHT22;2216;53.806;11.598;2023-07-20T01:07:14;14.20;55.00
4406;DHT22;2216;53.806;11.598;2023-07-20T01:10:18;14.20;54.40
4406;DHT22;2216;53.806;11.598;2023-07-20T01:12:52;14.20;54.40
4406;DHT22;2216;53.806;11.598;2023-07-20T01:15:19;14.20;54.50
4406;DHT22;2216;53.806;11.598;2023-07-20T01:17:45;14.20;54.50
4406;DHT22;2216;53.806;11.598;2023-07-20T01:20:14;14.10;54.40
4406;DHT22;2216;53.806;11.598;2023-07-20T01:25:57;14.10;54.40
4406;DHT22;2216;53.806;11.598;2023-07-20T01:29:29;13.90;54.40
4406;DHT22;2216;53.806;11.598;2023-07-20T01:32:08;14.00;54.50
4406;DHT22;2216;53.806;11.598;2023-07-20T01:34:35;14.10;54.50
4406;DHT22;2216;53.806;11.598;2023-07-20T01:37:02;14.00;54.50
4406;DHT22;2216;53.806;11.598;2023-07-20T01:39:29;14.00;54.50
4406;DHT22;2216;53.806;11.598;2023-07-20T01:41:55;14.00;54.60
4406;DHT22;2216;53.806;11.598;2023-07-20T01:44:21;14.00;54.60
4406;DHT22;2216;53.806;11.598;2023-07-20T01:46:47;14.00;54.80
4406;DHT22;2216;53.806;11.598;2023-07-20T01:49:13;13.90;54.60
4406;DHT22;2216;53.806;11.598;2023-07-20T01:51:38;14.00;54.70
4406;DHT22;2216;53.806;11.598;2023-07-20T01:54:04;14.00;54.80
4406;DHT22;2216;53.806;11.598;2023-07-20T01:56:30;14.00;54.80
4406;DHT22;2216;53.806;11.598;2023-07-20T01:58:55;14.00;54.80
4406;DHT22;2216;53.806;11.598;2023-07-20T02:01:21;14.00;54.80
4406;DHT22;2216;53.806;11.598;2023-07-20T02:03:47;14.00;54.80
4406;DHT22;2216;53.806;11.598;2023-07-20T02:06:12;14.00;54.80
4406;DHT22;2216;53.806;11.598;2023-07-20T02:08:38;14.00;54.80
4406;DHT22;2216;53.806;11.598;2023-07-20T02:11:04;13.90;54.70
4406;DHT22;2216;53.806;11.598;2023-07-20T02:13:30;14.10;54.90
4406;DHT22;2216;53.806;11.598;2023-07-20T02:15:55;14.10;54.90
4406;DHT22;2216;53.806;11.598;2023-07-20T02:18:21;14.10;54.90
4406;DHT22;2216;53.806;11.598;2023-07-20T02:20:47;14.10;54.90
4406;DHT22;2216;53.806;11.598;2023-07-20T02:23:12;14.10;54.90
4406;DHT22;2216;53.806;11.598;2023-07-20T02:25:38;14.10;55.00
4406;DHT22;2216;53.806;11.598;2023-07-20T02:28:04;14.10;54.90
4406;DHT22;2216;53.806;11.598;2023-07-20T02:30:30;14.10;55.10
4406;DHT22;2216;53.806;11.598;2023-07-20T02:32:56;14.10;55.10
4406;DHT22;2216;53.806;11.598;2023-07-20T02:35:24;14.10;55.00
4406;DHT22;2216;53.806;11.598;2023-07-20T02:37:49;14.10;55.10
4406;DHT22;2216;53.806;11.598;2023-07-20T02:40:15;14.20;55.00
4406;DHT22;2216;53.806;11.598;2023-07-20T02:42:41;14.20;55.00
4406;DHT22;2216;53.806;11.598;2023-07-20T02:45:07;14.20;55.00
4406;DHT22;2216;53.806;11.598;2023-07-20T02:47:32;14.20;55.10
4406;DHT22;2216;53.806;11.598;2023-07-20T02:49:59;14.20;55.00
4406;DHT22;2216;53.806;11.598;2023-07-20T02:52:25;14.20;55.10
4406;DHT22;2216;53.806;11.598;2023-07-20T02:54:50;14.20;55.10
4406;DHT22;2216;53.806;11.598;2023-07-20T02:57:16;14.40;55.20
4406;DHT22;2216;53.806;11.598;2023-07-20T02:59:42;14.30;55.10
4406;DHT22;2216;53.806;11.598;2023-07-20T03:02:07;14.20;55.40
4406;DHT22;2216;53.806;11.598;2023-07-20T03:04:35;14.30;55.20
4406;DHT22;2216;53.806;11.598;2023-07-20T03:07:03;14.30;55.20
4406;DHT22;2216;53.806;11.598;2023-07-20T03:09:30;14.30;55.10
4406;DHT22;2216;53.806;11.598;2023-07-20T03:11:55;14.30;55.20
4406;DHT22;2216;53.806;11.598;2023-07-20T03:14:21;14.30;55.20
4406;DHT22;2216;53.806;11.598;2023-07-20T03:16:48;14.30;55.20
4406;DHT22;2216;53.806;11.598;2023-07-20T03:19:14;14.30;55.20
4406;DHT22;2216;53.806;11.598;2023-07-20T03:21:39;14.30;55.20
4406;DHT22;2216;53.806;11.598;2023-07-20T03:24:07;14.30;55.20
4406;DHT22;2216;53.806;11.598;2023-07-20T03:26:34;14.40;55.30
4406;DHT22;2216;53.806;11.598;2023-07-20T03:29:00;14.30;55.20
4406;DHT22;2216;53.806;11.598;2023-07-20T03:31:26;14.30;55.20
4406;DHT22;2216;53.806;11.598;2023-07-20T03:33:52;14.30;55.20
4406;DHT22;2216;53.806;11.598;2023-07-20T03:36:17;14.30;55.20
4406;DHT22;2216;53.806;11.598;2023-07-20T03:38:43;14.30;55.20
4406;DHT22;2216;53.806;11.598;2023-07-20T03:41:09;14.30;55.30
4406;DHT22;2216;53.806;11.598;2023-07-20T03:43:34;14.30;55.20
4406;DHT22;2216;53.806;11.598;2023-07-20T03:46:00;14.40;55.20
4406;DHT22;2216;53.806;11.598;2023-07-20T03:48:26;14.40;55.30
4406;DHT22;2216;53.806;11.598;2023-07-20T03:50:53;14.40;55.30
4406;DHT22;2216;53.806;11.598;2023-07-20T03:53:19;14.40;55.40
4406;DHT22;2216;53.806;11.598;2023-07-20T03:55:46;14.40;55.30
4406;DHT22;2216;53.806;11.598;2023-07-20T03:58:17;14.40;55.40
4406;DHT22;2216;53.806;11.598;2023-07-20T04:00:45;14.40;55.40
4406;DHT22;2216;53.806;11.598;2023-07-20T04:03:11;14.40;55.40
4406;DHT22;2216;53.806;11.598;2023-07-20T04:05:37;14.40;55.30
4406;DHT22;2216;53.806;11.598;2023-07-20T04:08:03;14.40;55.40
4406;DHT22;2216;53.806;11.598;2023-07-20T04:10:29;14.40;55.40
4406;DHT22;2216;53.806;11.598;2023-07-20T04:12:55;14.40;55.40
4406;DHT22;2216;53.806;11.598;2023-07-20T04:15:20;14.40;55.40
4406;DHT22;2216;53.806;11.598;2023-07-20T04:17:46;14.50;55.40
4406;DHT22;2216;53.806;11.598;2023-07-20T04:20:12;14.50;55.50
4406;DHT22;2216;53.806;11.598;2023-07-20T04:22:38;14.50;55.60
4406;DHT22;2216;53.806;11.598;2023-07-20T04:25:04;14.50;55.50
4406;DHT22;2216;53.806;11.598;2023-07-20T04:27:30;14.60;55.70
4406;DHT22;2216;53.806;11.598;2023-07-20T04:29:57;14.60;55.60
4406;DHT22;2216;53.806;11.598;2023-07-20T04:32:25;14.60;55.70
4406;DHT22;2216;53.806;11.598;2023-07-20T04:34:50;14.60;55.70
4406;DHT22;2216;53.806;11.598;2023-07-20T04:37:16;14.70;55.90
4406;DHT22;2216;53.806;11.598;2023-07-20T04:39:42;14.70;55.70
4406;DHT22;2216;53.806;11.598;2023-07-20T04:42:07;14.80;55.80
4406;DHT22;2216;53.806;11.598;2023-07-20T04:44:33;14.80;56.10
4406;DHT22;2216;53.806;11.598;2023-07-20T04:46:59;14.80;56.00
4406;DHT22;2216;53.806;11.598;2023-07-20T04:49:25;14.90;56.00
4406;DHT22;2216;53.806;11.598;2023-07-20T04:51:51;15.00;55.90
4406;DHT22;2216;53.806;11.598;2023-07-20T04:54:17;15.00;56.00
4406;DHT22;2216;53.806;11.598;2023-07-20T04:56:44;15.10;55.90
4406;DHT22;2216;53.806;11.598;2023-07-20T04:59:09;15.10;55.90
4406;DHT22;2216;53.806;11.598;2023-07-20T05:01:35;15.20;55.90
4406;DHT22;2216;53.806;11.598;2023-07-20T05:04:01;15.20;55.90
4406;DHT22;2216;53.806;11.598;2023-07-20T05:06:27;15.30;56.10
4406;DHT22;2216;53.806;11.598;2023-07-20T05:08:53;15.40;56.10
4406;DHT22;2216;53.806;11.598;2023-07-20T05:11:18;15.50;56.10
4406;DHT22;2216;53.806;11.598;2023-07-20T05:13:45;15.50;56.00
4406;DHT22;2216;53.806;11.598;2023-07-20T05:16:11;15.60;56.20
4406;DHT22;2216;53.806;11.598;2023-07-20T05:18:36;15.80;56.20
4406;DHT22;2216;53.806;11.598;2023-07-20T05:21:02;15.80;56.00
4406;DHT22;2216;53.806;11.598;2023-07-20T05:23:28;15.90;56.10
4406;DHT22;2216;53.806;11.598;2023-07-20T05:25:57;16.00;56.10
4406;DHT22;2216;53.806;11.598;2023-07-20T05:28:24;16.10;56.20
4406;DHT22;2216;53.806;11.598;2023-07-20T05:30:51;16.30;56.50
4406;DHT22;2216;53.806;11.598;2023-07-20T05:33:18;16.40;56.60
4406;DHT22;2216;53.806;11.598;2023-07-20T05:35:47;16.50;56.40
4406;DHT22;2216;53.806;11.598;2023-07-20T05:38:13;16.70;56.20
4406;DHT22;2216;53.806;11.598;2023-07-20T05:40:41;16.70;56.20
4406;DHT22;2216;53.806;11.598;2023-07-20T05:43:10;16.80;56.10
4406;DHT22;2216;53.806;11.598;2023-07-20T05:45:36;16.90;55.90
4406;DHT22;2216;53.806;11.598;2023-07-20T05:48:02;17.00;55.90
4406;DHT22;2216;53.806;11.598;2023-07-20T05:50:28;17.00;55.90
4406;DHT22;2216;53.806;11.598;2023-07-20T05:52:54;17.10;55.90
4406;DHT22;2216;53.806;11.598;2023-07-20T05:55:20;17.10;55.90
4406;DHT22;2216;53.806;11.598;2023-07-20T05:57:46;17.20;55.90
4406;DHT22;2216;53.806;11.598;2023-07-20T06:00:13;17.30;56.10
4406;DHT22;2216;53.806;11.598;2023-07-20T06:02:39;17.50;56.20
4406;DHT22;2216;53.806;11.598;2023-07-20T06:05:07;17.60;56.10
4406;DHT22;2216;53.806;11.598;2023-07-20T06:07:36;17.70;56.00
4406;DHT22;2216;53.806;11.598;2023-07-20T06:10:02;17.90;56.30
4406;DHT22;2216;53.806;11.598;2023-07-20T06:12:28;18.10;56.30
4406;DHT22;2216;53.806;11.598;2023-07-20T06:14:54;18.20;56.10
4406;DHT22;2216;53.806;11.598;2023-07-20T06:17:19;18.40;56.20
4406;DHT22;2216;53.806;11.598;2023-07-20T06:19:45;18.60;56.30
4406;DHT22;2216;53.806;11.598;2023-07-20T06:22:11;18.80;56.20
4406;DHT22;2216;53.806;11.598;2023-07-20T06:24:36;19.00;56.20
4406;DHT22;2216;53.806;11.598;2023-07-20T06:27:02;19.10;56.10
4406;DHT22;2216;53.806;11.598;2023-07-20T06:29:28;19.30;56.20
4406;DHT22;2216;53.806;11.598;2023-07-20T06:31:54;19.50;56.10
4406;DHT22;2216;53.806;11.598;2023-07-20T06:34:19;19.70;56.00
4406;DHT22;2216;53.806;11.598;2023-07-20T06:36:45;19.80;55.80
4406;DHT22;2216;53.806;11.598;2023-07-20T06:39:11;20.00;55.70
4406;DHT22;2216;53.806;11.598;2023-07-20T06:41:36;20.10;55.50
4406;DHT22;2216;53.806;11.598;2023-07-20T06:44:02;20.20;55.40
4406;DHT22;2216;53.806;11.598;2023-07-20T06:46:28;20.30;55.30
4406;DHT22;2216;53.806;11.598;2023-07-20T06:48:55;20.40;55.30
4406;DHT22;2216;53.806;11.598;2023-07-20T06:51:20;20.50;55.30
4406;DHT22;2216;53.806;11.598;2023-07-20T06:53:46;20.60;55.30
4406;DHT22;2216;53.806;11.598;2023-07-20T06:56:12;20.80;55.30
4406;DHT22;2216;53.806;11.598;2023-07-20T06:58:38;20.80;55.10
4406;DHT22;2216;53.806;11.598;2023-07-20T07:01:08;21.00;55.20
4406;DHT22;2216;53.806;11.598;2023-07-20T07:03:34;21.10;55.00
4406;DHT22;2216;53.806;11.598;2023-07-20T07:06:00;21.20;55.00
4406;DHT22;2216;53.806;11.598;2023-07-20T07:08:26;21.40;55.00
4406;DHT22;2216;53.806;11.598;2023-07-20T07:10:52;21.40;54.80
4406;DHT22;2216;53.806;11.598;2023-07-20T07:13:18;21.50;55.20
4406;DHT22;2216;53.806;11.598;2023-07-20T07:15:44;21.60;54.40
4406;DHT22;2216;53.806;11.598;2023-07-20T07:18:10;21.60;54.40
4406;DHT22;2216;53.806;11.598;2023-07-20T07:20:36;21.70;54.50
4406;DHT22;2216;53.806;11.598;2023-07-20T07:23:02;21.80;54.20
4406;DHT22;2216;53.806;11.598;2023-07-20T07:25:27;21.90;54.40
4406;DHT22;2216;53.806;11.598;2023-07-20T07:27:54;21.90;54.40
4406;DHT22;2216;53.806;11.598;2023-07-20T07:30:21;22.00;54.30
4406;DHT22;2216;53.806;11.598;2023-07-20T07:32:46;22.10;54.40
4406;DHT22;2216;53.806;11.598;2023-07-20T07:35:12;22.20;54.40
4406;DHT22;2216;53.806;11.598;2023-07-20T07:37:38;22.30;54.00
4406;DHT22;2216;53.806;11.598;2023-07-20T07:40:04;22.30;54.00
4406;DHT22;2216;53.806;11.598;2023-07-20T07:42:31;22.30;53.60
4406;DHT22;2216;53.806;11.598;2023-07-20T07:44:57;22.30;53.80
4406;DHT22;2216;53.806;11.598;2023-07-20T07:47:22;22.40;54.10
4406;DHT22;2216;53.806;11.598;2023-07-20T07:49:48;22.50;53.90
4406;DHT22;2216;53.806;11.598;2023-07-20T07:52:14;22.50;54.00
4406;DHT22;2216;53.806;11.598;2023-07-20T07:54:40;22.60;53.80
4406;DHT22;2216;53.806;11.598;2023-07-20T07:57:06;22.70;53.80
4406;DHT22;2216;53.806;11.598;2023-07-20T07:59:31;22.80;53.70
4406;DHT22;2216;53.806;11.598;2023-07-20T08:02:02;22.80;53.50
4406;DHT22;2216;53.806;11.598;2023-07-20T08:04:29;22.80;53.00
4406;DHT22;2216;53.806;11.598;2023-07-20T08:06:55;22.70;53.10
4406;DHT22;2216;53.806;11.598;2023-07-20T08:09:20;22.70;53.30
4406;DHT22;2216;53.806;11.598;2023-07-20T08:11:46;22.70;53.10
4406;DHT22;2216;53.806;11.598;2023-07-20T08:14:13;22.80;53.30
4406;DHT22;2216;53.806;11.598;2023-07-20T08:16:39;22.80;53.50
4406;DHT22;2216;53.806;11.598;2023-07-20T08:19:04;23.00;53.60
4406;DHT22;2216;53.806;11.598;2023-07-20T08:21:30;23.10;54.10
4406;DHT22;2216;53.806;11.598;2023-07-20T08:23:56;23.30;53.50
4406;DHT22;2216;53.806;11.598;2023-07-20T08:26:22;23.40;52.90
4406;DHT22;2216;53.806;11.598;2023-07-20T08:28:48;23.50;52.70
4406;DHT22;2216;53.806;11.598;2023-07-20T08:31:14;23.50;52.70
4406;DHT22;2216;53.806;11.598;2023-07-20T08:33:40;23.40;52.50
4406;DHT22;2216;53.806;11.598;2023-07-20T08:36:05;23.40;52.00
4406;DHT22;2216;53.806;11.598;2023-07-20T08:38:31;23.20;52.10
4406;DHT22;2216;53.806;11.598;2023-07-20T08:40:57;23.00;52.20
4406;DHT22;2216;53.806;11.598;2023-07-20T08:43:25;23.00;52.50
4406;DHT22;2216;53.806;11.598;2023-07-20T08:45:54;22.90;52.30
4406;DHT22;2216;53.806;11.598;2023-07-20T08:48:24;22.80;52.30
4406;DHT22;2216;53.806;11.598;2023-07-20T08:50:51;22.70;52.20
4406;DHT22;2216;53.806;11.598;2023-07-20T08:53:21;22.60;52.40
4406;DHT22;2216;53.806;11.598;2023-07-20T08:55:49;22.60;52.70
4406;DHT22;2216;53.806;11.598;2023-07-20T08:58:17;22.70;52.80
4406;DHT22;2216;53.806;11.598;2023-07-20T09:00:43;22.80;52.80
4406;DHT22;2216;53.806;11.598;2023-07-20T09:03:10;23.00;52.70
4406;DHT22;2216;53.806;11.598;2023-07-20T09:05:36;23.10;52.80
4406;DHT22;2216;53.806;11.598;2023-07-20T09:08:02;23.30;52.30
4406;DHT22;2216;53.806;11.598;2023-07-20T09:10:29;23.40;52.60
4406;DHT22;2216;53.806;11.598;2023-07-20T09:12:55;23.60;52.50
4406;DHT22;2216;53.806;11.598;2023-07-20T09:15:22;23.60;52.50
4406;DHT22;2216;53.806;11.598;2023-07-20T09:17:50;23.90;52.30
4406;DHT22;2216;53.806;11.598;2023-07-20T09:20:17;24.00;52.60
4406;DHT22;2216;53.806;11.598;2023-07-20T09:22:43;24.10;52.20
4406;DHT22;2216;53.806;11.598;2023-07-20T09:25:13;24.20;51.50
4406;DHT22;2216;53.806;11.598;2023-07-20T09:27:46;24.10;51.50
4406;DHT22;2216;53.806;11.598;2023-07-20T09:30:14;24.10;51.10
4406;DHT22;2216;53.806;11.598;2023-07-20T09:32:41;24.00;51.40
4406;DHT22;2216;53.806;11.598;2023-07-20T09:35:21;23.90;51.30
4406;DHT22;2216;53.806;11.598;2023-07-20T09:37:59;23.70;51.10
4406;DHT22;2216;53.806;11.598;2023-07-20T09:40:29;23.60;51.10
4406;DHT22;2216;53.806;11.598;2023-07-20T09:42:55;23.50;51.40
4406;DHT22;2216;53.806;11.598;2023-07-20T09:45:39;23.50;51.60
4406;DHT22;2216;53.806;11.598;2023-07-20T09:48:06;23.40;51.60
4406;DHT22;2216;53.806;11.598;2023-07-20T09:50:33;23.30;51.40
4406;DHT22;2216;53.806;11.598;2023-07-20T09:53:00;23.10;51.30
4406;DHT22;2216;53.806;11.598;2023-07-20T09:55:29;23.10;51.50
4406;DHT22;2216;53.806;11.598;2023-07-20T09:57:56;23.10;51.80
4406;DHT22;2216;53.806;11.598;2023-07-20T10:00:22;23.10;52.00
4406;DHT22;2216;53.806;11.598;2023-07-20T10:02:49;23.30;52.20
4406;DHT22;2216;53.806;11.598;2023-07-20T10:05:17;23.50;52.00
4406;DHT22;2216;53.806;11.598;2023-07-20T10:07:49;23.60;52.00
4406;DHT22;2216;53.806;11.598;2023-07-20T10:10:17;23.60;51.70
4406;DHT22;2216;53.806;11.598;2023-07-20T10:12:46;23.60;51.60
4406;DHT22;2216;53.806;11.598;2023-07-20T10:15:40;23.60;51.30
4406;DHT22;2216;53.806;11.598;2023-07-20T10:18:20;23.70;51.50
4406;DHT22;2216;53.806;11.598;2023-07-20T10:20:50;23.70;50.90
4406;DHT22;2216;53.806;11.598;2023-07-20T10:23:17;23.60;51.20
4406;DHT22;2216;53.806;11.598;2023-07-20T10:25:43;23.50;51.20
4406;DHT22;2216;53.806;11.598;2023-07-20T10:28:10;23.60;51.70
4406;DHT22;2216;53.806;11.598;2023-07-20T10:30:36;23.70;51.70
4406;DHT22;2216;53.806;11.598;2023-07-20T10:33:03;23.90;52.10
4406;DHT22;2216;53.806;11.598;2023-07-20T10:35:29;24.10;52.10
4406;DHT22;2216;53.806;11.598;2023-07-20T10:38:03;24.40;51.80
4406;DHT22;2216;53.806;11.598;2023-07-20T10:40:39;24.50;51.00
4406;DHT22;2216;53.806;11.598;2023-07-20T10:43:09;24.60;50.30
4406;DHT22;2216;53.806;11.598;2023-07-20T10:45:52;24.50;50.40
4406;DHT22;2216;53.806;11.598;2023-07-20T10:48:21;24.50;50.70
4406;DHT22;2216;53.806;11.598;2023-07-20T10:51:08;24.40;50.60
4406;DHT22;2216;53.806;11.598;2023-07-20T10:53:39;24.40;50.70
4406;DHT22;2216;53.806;11.598;2023-07-20T10:56:08;24.40;50.90
4406;DHT22;2216;53.806;11.598;2023-07-20T10:58:37;24.30;50.30
4406;DHT22;2216;53.806;11.598;2023-07-20T11:01:04;24.30;50.50
4406;DHT22;2216;53.806;11.598;2023-07-20T11:03:33;24.30;50.50
4406;DHT22;2216;53.806;11.598;2023-07-20T11:06:00;24.10;50.40
4406;DHT22;2216;53.806;11.598;2023-07-20T11:09:08;24.10;50.70
4406;DHT22;2216;53.806;11.598;2023-07-20T11:11:44;24.00;50.50
4406;DHT22;2216;53.806;11.598;2023-07-20T11:16:48;24.10;51.00
4406;DHT22;2216;53.806;11.598;2023-07-20T11:19:23;24.20;51.10
4406;DHT22;2216;53.806;11.598;2023-07-20T11:21:52;24.20;50.80
4406;DHT22;2216;53.806;11.598;2023-07-20T11:24:19;24.20;50.30
4406;DHT22;2216;53.806;11.598;2023-07-20T11:26:45;24.00;50.00
4406;DHT22;2216;53.806;11.598;2023-07-20T11:29:13;23.70;49.70
4406;DHT22;2216;53.806;11.598;2023-07-20T11:31:43;23.50;49.70
4406;DHT22;2216;53.806;11.598;2023-07-20T11:34:17;23.30;49.90
4406;DHT22;2216;53.806;11.598;2023-07-20T11:36:48;23.20;50.40
4406;DHT22;2216;53.806;11.598;2023-07-20T11:39:17;23.20;50.70
4406;DHT22;2216;53.806;11.598;2023-07-20T11:41:48;23.30;51.30
4406;DHT22;2216;53.806;11.598;2023-07-20T11:44:19;23.50;50.70
4406;DHT22;2216;53.806;11.598;2023-07-20T11:47:00;23.60;51.20
4406;DHT22;2216;53.806;11.598;2023-07-20T11:49:28;23.60;50.70
4406;DHT22;2216;53.806;11.598;2023-07-20T11:51:53;23.60;50.70
4406;DHT22;2216;53.806;11.598;2023-07-20T11:54:20;23.60;50.50
4406;DHT22;2216;53.806;11.598;2023-07-20T11:56:45;23.60;50.50
4406;DHT22;2216;53.806;11.598;2023-07-20T11:59:11;23.50;50.50
4406;DHT22;2216;53.806;11.598;2023-07-20T12:01:37;23.40;50.60
4406;DHT22;2216;53.806;11.598;2023-07-20T12:04:03;23.40;50.60
4406;DHT22;2216;53.806;11.598;2023-07-20T12:06:30;23.40;50.70
4406;DHT22;2216;53.806;11.598;2023-07-20T12:08:57;23.40;50.40
4406;DHT22;2216;53.806;11.598;2023-07-20T12:11:34;23.40;50.40
4406;DHT22;2216;53.806;11.598;2023-07-20T12:14:02;23.30;50.30
4406;DHT22;2216;53.806;11.598;2023-07-20T12:16:30;23.20;50.30
4406;DHT22;2216;53.806;11.598;2023-07-20T12:19:00;23.10;50.40
4406;DHT22;2216;53.806;11.598;2023-07-20T12:21:30;23.00;50.30
4406;DHT22;2216;53.806;11.598;2023-07-20T12:23:58;22.80;50.20
4406;DHT22;2216;53.806;11.598;2023-07-20T12:26:25;22.70;50.20
4406;DHT22;2216;53.806;11.598;2023-07-20T12:28:51;22.60;50.80
4406;DHT22;2216;53.806;11.598;2023-07-20T12:31:18;22.50;50.30
4406;DHT22;2216;53.806;11.598;2023-07-20T12:33:43;22.40;50.50
4406;DHT22;2216;53.806;11.598;2023-07-20T12:36:10;22.40;50.80
4406;DHT22;2216;53.806;11.598;2023-07-20T12:38:36;22.40;51.00
4406;DHT22;2216;53.806;11.598;2023-07-20T12:41:02;22.60;51.30
4406;DHT22;2216;53.806;11.598;2023-07-20T12:43:29;22.60;51.40
4406;DHT22;2216;53.806;11.598;2023-07-20T12:45:55;22.80;51.40
4406;DHT22;2216;53.806;11.598;2023-07-20T12:48:21;22.90;51.10
4406;DHT22;2216;53.806;11.598;2023-07-20T12:50:47;23.00;51.00
4406;DHT22;2216;53.806;11.598;2023-07-20T12:53:13;23.00;50.70
4406;DHT22;2216;53.806;11.598;2023-07-20T12:55:39;22.90;50.40
4406;DHT22;2216;53.806;11.598;2023-07-20T12:58:07;22.80;50.20
4406;DHT22;2216;53.806;11.598;2023-07-20T13:00:33;22.60;50.10
4406;DHT22;2216;53.806;11.598;2023-07-20T13:02:58;22.40;50.10
4406;DHT22;2216;53.806;11.598;2023-07-20T13:05:24;22.10;50.10
4406;DHT22;2216;53.806;11.598;2023-07-20T13:07:50;21.90;50.20
4406;DHT22;2216;53.806;11.598;2023-07-20T13:10:16;21.80;50.40
4406;DHT22;2216;53.806;11.598;2023-07-20T13:12:43;21.70;50.60
4406;DHT22;2216;53.806;11.598;2023-07-20T13:15:10;21.60;50.70
4406;DHT22;2216;53.806;11.598;2023-07-20T13:17:37;21.60;51.10
4406;DHT22;2216;53.806;11.598;2023-07-20T13:20:05;21.60;51.40
4406;DHT22;2216;53.806;11.598;2023-07-20T13:22:33;21.70;51.60
4406;DHT22;2216;53.806;11.598;2023-07-20T13:24:59;21.90;51.60
4406;DHT22;2216;53.806;11.598;2023-07-20T13:27:25;22.00;51.40
4406;DHT22;2216;53.806;11.598;2023-07-20T13:29:53;22.00;51.20
4406;DHT22;2216;53.806;11.598;2023-07-20T13:32:19;22.00;51.20
4406;DHT22;2216;53.806;11.598;2023-07-20T13:34:45;22.00;51.00
4406;DHT22;2216;53.806;11.598;2023-07-20T13:37:11;22.00;50.90
4406;DHT22;2216;53.806;11.598;2023-07-20T13:39:38;22.00;50.80
4406;DHT22;2216;53.806;11.598;2023-07-20T13:42:04;21.90;50.70
4406;DHT22;2216;53.806;11.598;2023-07-20T13:44:31;21.80;50.70
4406;DHT22;2216;53.806;11.598;2023-07-20T13:46:57;21.80;50.70
4406;DHT22;2216;53.806;11.598;2023-07-20T13:49:23;21.70;50.60
4406;DHT22;2216;53.806;11.598;2023-07-20T13:51:48;21.70;50.80
4406;DHT22;2216;53.806;11.598;2023-07-20T13:54:14;21.70;51.00
4406;DHT22;2216;53.806;11.598;2023-07-20T13:56:40;21.70;51.30
4406;DHT22;2216;53.806;11.598;2023-07-20T13:59:05;21.80;51.40
4406;DHT22;2216;53.806;11.598;2023-07-20T14:01:31;21.90;51.30
4406;DHT22;2216;53.806;11.598;2023-07-20T14:03:59;22.00;51.20
4406;DHT22;2216;53.806;11.598;2023-07-20T14:06:26;22.10;51.10
4406;DHT22;2216;53.806;11.598;2023-07-20T14:08:56;22.20;51.00
4406;DHT22;2216;53.806;11.598;2023-07-20T14:11:22;22.20;50.80
4406;DHT22;2216;53.806;11.598;2023-07-20T14:13:49;22.20;50.70
4406;DHT22;2216;53.806;11.598;2023-07-20T14:16:15;22.20;50.60
4406;DHT22;2216;53.806;11.598;2023-07-20T14:18:41;22.30;50.70
4406;DHT22;2216;53.806;11.598;2023-07-20T14:21:06;22.30;50.70
4406;DHT22;2216;53.806;11.598;2023-07-20T14:23:32;22.40;51.00
4406;DHT22;2216;53.806;11.598;2023-07-20T14:25:58;22.60;51.10
4406;DHT22;2216;53.806;11.598;2023-07-20T14:28:24;22.80;50.90
4406;DHT22;2216;53.806;11.598;2023-07-20T14:30:50;22.90;51.00
4406;DHT22;2216;53.806;11.598;2023-07-20T14:33:16;23.10;50.60
4406;DHT22;2216;53.806;11.598;2023-07-20T14:35:41;23.20;50.50
4406;DHT22;2216;53.806;11.598;2023-07-20T14:38:07;23.20;50.30
4406;DHT22;2216;53.806;11.598;2023-07-20T14:40:33;23.30;50.20
4406;DHT22;2216;53.806;11.598;2023-07-20T14:42:59;23.30;50.10
4406;DHT22;2216;53.806;11.598;2023-07-20T14:45:27;23.30;49.90
4406;DHT22;2216;53.806;11.598;2023-07-20T14:47:52;23.20;49.70
4406;DHT22;2216;53.806;11.598;2023-07-20T14:50:22;23.00;49.70
4406;DHT22;2216;53.806;11.598;2023-07-20T14:52:49;22.90;49.60
4406;DHT22;2216;53.806;11.598;2023-07-20T14:55:15;22.70;49.60
4406;DHT22;2216;53.806;11.598;2023-07-20T14:57:41;22.60;49.60
4406;DHT22;2216;53.806;11.598;2023-07-20T15:00:07;22.40;49.70
4406;DHT22;2216;53.806;11.598;2023-07-20T15:02:36;22.30;49.80
4406;DHT22;2216;53.806;11.598;2023-07-20T15:05:08;22.20;49.90
4406;DHT22;2216;53.806;11.598;2023-07-20T15:07:34;22.10;50.00
4406;DHT22;2216;53.806;11.598;2023-07-20T15:10:01;22.00;50.20
4406;DHT22;2216;53.806;11.598;2023-07-20T15:12:27;22.00;50.40
4406;DHT22;2216;53.806;11.598;2023-07-20T15:15:06;22.10;50.60
4406;DHT22;2216;53.806;11.598;2023-07-20T15:17:36;22.10;50.60
4406;DHT22;2216;53.806;11.598;2023-07-20T15:20:03;22.20;50.60
4406;DHT22;2216;53.806;11.598;2023-07-20T15:22:33;22.20;50.60
4406;DHT22;2216;53.806;11.598;2023-07-20T15:25:04;22.30;50.50
4406;DHT22;2216;53.806;11.598;2023-07-20T15:27:30;22.40;50.60
4406;DHT22;2216;53.806;11.598;2023-07-20T15:29:56;22.40;50.50
4406;DHT22;2216;53.806;11.598;2023-07-20T15:32:22;22.50;50.40
4406;DHT22;2216;53.806;11.598;2023-07-20T15:34:48;22.60;50.30
4406;DHT22;2216;53.806;11.598;2023-07-20T15:37:13;22.60;50.30
4406;DHT22;2216;53.806;11.598;2023-07-20T15:39:40;22.60;50.10
4406;DHT22;2216;53.806;11.598;2023-07-20T15:42:06;22.60;49.90
4406;DHT22;2216;53.806;11.598;2023-07-20T15:44:32;22.60;50.10
4406;DHT22;2216;53.806;11.598;2023-07-20T15:46:57;22.60;50.10
4406;DHT22;2216;53.806;11.598;2023-07-20T15:49:23;22.50;50.10
4406;DHT22;2216;53.806;11.598;2023-07-20T15:51:55;22.60;50.10